sensor_id;sensor_type;location;lat;lon;timestamp;pressure;altitude;pressure_sealevel;temperature;humidity
706;BME280;21234;48.690;9.016;2024-02-15T00:02:00;96601.34;;;9.38;100.00
706;BME280;21234;48.690;9.016;2024-02-15T00:04:27;96596.38;;;9.35;100.00
706;BME280;21234;48.690;9.016;2024-02-15T00:06:55;96597.69;;;9.32;100.00
706;BME280;21234;48.690;9.016;2024-02-15T00:09:22;96593.56;;;9.30;100.00
706;BME280;21234;48.690;9.016;2024-02-15T00:11:48;96599.94;;;9.35;100.00
706;BME280;21234;48.690;9.016;2024-02-15T00:14:15;96597.69;;;9.32;100.00
706;BME280;21234;48.690;9.016;2024-02-15T00:16:42;96598.50;;;9.33;100.00
706;BME280;21234;48.690;9.016;2024-02-15T00:19:09;96592.84;;;9.34;100.00
706;BME280;21234;48.690;9.016;2024-02-15T00:21:35;96588.72;;;9.32;100.00
706;BME280;21234;48.690;9.016;2024-02-15T00:24:04;96577.03;;;9.31;100.00
706;BME280;21234;48.690;9.016;2024-02-15T00:26:31;96587.91;;;9.31;100.00
706;BME280;21234;48.690;9.016;2024-02-15T00:28:58;96582.47;;;9.31;100.00
706;BME280;21234;48.690;9.016;2024-02-15T00:31:24;96584.81;;;9.28;100.00
706;BME280;21234;48.690;9.016;2024-02-15T00:33:51;96590.00;;;9.29;100.00
706;BME280;21234;48.690;9.016;2024-02-15T00:36:19;96586.00;;;9.32;100.00
706;BME280;21234;48.690;9.016;2024-02-15T00:38:46;96588.34;;;9.28;100.00
706;BME280;21234;48.690;9.016;2024-02-15T00:41:14;96579.41;;;9.28;100.00
706;BME280;21234;48.690;9.016;2024-02-15T00:43:40;96581.63;;;9.31;100.00
706;BME280;21234;48.690;9.016;2024-02-15T00:46:07;96579.16;;;9.29;100.00
706;BME280;21234;48.690;9.016;2024-02-15T00:48:34;96586.47;;;9.29;100.00
706;BME280;21234;48.690;9.016;2024-02-15T00:51:01;96588.00;;;9.25;100.00
706;BME280;21234;48.690;9.016;2024-02-15T00:53:28;96581.25;;;9.16;100.00
706;BME280;21234;48.690;9.016;2024-02-15T00:55:55;96575.97;;;9.09;100.00
706;BME280;21234;48.690;9.016;2024-02-15T00:58:24;96575.97;;;9.09;100.00
706;BME280;21234;48.690;9.016;2024-02-15T01:00:52;96581.63;;;9.07;100.00
706;BME280;21234;48.690;9.016;2024-02-15T01:03:19;96571.00;;;9.06;100.00
706;BME280;21234;48.690;9.016;2024-02-15T01:05:46;96576.88;;;9.03;100.00
706;BME280;21234;48.690;9.016;2024-02-15T01:08:13;96569.81;;;9.02;100.00
706;BME280;21234;48.690;9.016;2024-02-15T01:10:39;96566.13;;;8.96;100.00
706;BME280;21234;48.690;9.016;2024-02-15T01:13:06;96574.28;;;8.96;100.00
706;BME280;21234;48.690;9.016;2024-02-15T01:15:35;96572.38;;;8.97;100.00
706;BME280;21234;48.690;9.016;2024-02-15T01:18:03;96574.28;;;8.96;100.00
706;BME280;21234;48.690;9.016;2024-02-15T01:20:30;96569.09;;;8.95;100.00
706;BME280;21234;48.690;9.016;2024-02-15T01:22:57;96569.09;;;8.95;100.00
706;BME280;21234;48.690;9.016;2024-02-15T01:25:23;96565.09;;;8.97;100.00
706;BME280;21234;48.690;9.016;2024-02-15T01:27:50;96570.72;;;8.96;100.00
706;BME280;21234;48.690;9.016;2024-02-15T01:30:17;96570.13;;;8.94;100.00
706;BME280;21234;48.690;9.016;2024-02-15T01:32:45;96568.13;;;8.89;100.00
706;BME280;21234;48.690;9.016;2024-02-15T01:35:13;96568.59;;;8.86;100.00
706;BME280;21234;48.690;9.016;2024-02-15T01:37:39;96568.81;;;8.85;100.00
706;BME280;21234;48.690;9.016;2024-02-15T01:40:07;96565.28;;;8.84;100.00
706;BME280;21234;48.690;9.016;2024-02-15T01:42:37;96565.28;;;8.84;100.00
706;BME280;21234;48.690;9.016;2024-02-15T01:45:05;96571.28;;;8.74;100.00
706;BME280;21234;48.690;9.016;2024-02-15T01:47:32;96553.81;;;8.70;100.00
706;BME280;21234;48.690;9.016;2024-02-15T01:50:00;96561.34;;;8.68;100.00
706;BME280;21234;48.690;9.016;2024-02-15T01:52:28;96555.81;;;8.63;100.00
706;BME280;21234;48.690;9.016;2024-02-15T01:54:55;96552.13;;;8.58;100.00
706;BME280;21234;48.690;9.016;2024-02-15T01:57:22;96550.69;;;8.55;100.00
706;BME280;21234;48.690;9.016;2024-02-15T01:59:50;96551.63;;;8.49;100.00
706;BME280;21234;48.690;9.016;2024-02-15T02:02:18;96546.91;;;8.45;100.00
706;BME280;21234;48.690;9.016;2024-02-15T02:04:47;96557.50;;;8.46;100.00
706;BME280;21234;48.690;9.016;2024-02-15T02:07:15;96552.41;;;8.38;100.00
706;BME280;21234;48.690;9.016;2024-02-15T02:09:42;96555.84;;;8.27;100.00
706;BME280;21234;48.690;9.016;2024-02-15T02:12:11;96557.38;;;8.23;100.00
706;BME280;21234;48.690;9.016;2024-02-15T02:14:37;96555.34;;;8.18;100.00
706;BME280;21234;48.690;9.016;2024-02-15T02:17:11;96552.19;;;8.21;100.00
706;BME280;21234;48.690;9.016;2024-02-15T02:19:39;96561.59;;;8.19;100.00
706;BME280;21234;48.690;9.016;2024-02-15T02:22:06;96551.19;;;8.16;100.00
706;BME280;21234;48.690;9.016;2024-02-15T02:24:42;96552.47;;;8.13;100.00
706;BME280;21234;48.690;9.016;2024-02-15T02:27:13;96553.56;;;8.12;100.00
706;BME280;21234;48.690;9.016;2024-02-15T02:29:42;96551.75;;;8.06;100.00
706;BME280;21234;48.690;9.016;2024-02-15T02:32:11;96549.50;;;8.03;100.00
706;BME280;21234;48.690;9.016;2024-02-15T02:34:38;96547.94;;;7.95;100.00
706;BME280;21234;48.690;9.016;2024-02-15T02:37:06;96546.88;;;7.96;100.00
706;BME280;21234;48.690;9.016;2024-02-15T02:39:33;96549.34;;;7.98;100.00
706;BME280;21234;48.690;9.016;2024-02-15T02:42:01;96551.53;;;7.89;100.00
706;BME280;21234;48.690;9.016;2024-02-15T02:44:29;96552.22;;;7.85;100.00
706;BME280;21234;48.690;9.016;2024-02-15T02:46:56;96551.59;;;7.83;100.00
706;BME280;21234;48.690;9.016;2024-02-15T02:49:23;96539.50;;;7.85;100.00
706;BME280;21234;48.690;9.016;2024-02-15T02:51:50;96544.75;;;7.80;100.00
706;BME280;21234;48.690;9.016;2024-02-15T02:54:16;96547.56;;;7.73;100.00
706;BME280;21234;48.690;9.016;2024-02-15T02:56:43;96552.16;;;7.73;100.00
706;BME280;21234;48.690;9.016;2024-02-15T02:59:10;96543.06;;;7.67;100.00
706;BME280;21234;48.690;9.016;2024-02-15T03:01:39;96540.03;;;7.57;100.00
706;BME280;21234;48.690;9.016;2024-02-15T03:04:06;96548.66;;;7.48;100.00
706;BME280;21234;48.690;9.016;2024-02-15T03:06:33;96548.31;;;7.44;100.00
706;BME280;21234;48.690;9.016;2024-02-15T03:09:01;96543.72;;;7.45;100.00
706;BME280;21234;48.690;9.016;2024-02-15T03:11:32;96541.69;;;7.40;100.00
706;BME280;21234;48.690;9.016;2024-02-15T03:13:59;96548.53;;;7.18;100.00
706;BME280;21234;48.690;9.016;2024-02-15T03:16:26;96547.19;;;7.08;100.00
706;BME280;21234;48.690;9.016;2024-02-15T03:18:54;96545.63;;;6.94;100.00
706;BME280;21234;48.690;9.016;2024-02-15T03:21:20;96551.66;;;6.96;100.00
706;BME280;21234;48.690;9.016;2024-02-15T03:23:47;96544.59;;;6.95;100.00
706;BME280;21234;48.690;9.016;2024-02-15T03:26:14;96551.59;;;7.03;100.00
706;BME280;21234;48.690;9.016;2024-02-15T03:28:40;96556.06;;;6.91;100.00
706;BME280;21234;48.690;9.016;2024-02-15T03:31:08;96553.13;;;6.92;100.00
706;BME280;21234;48.690;9.016;2024-02-15T03:33:35;96549.94;;;7.02;100.00
706;BME280;21234;48.690;9.016;2024-02-15T03:36:04;96548.84;;;7.10;100.00
706;BME280;21234;48.690;9.016;2024-02-15T03:38:31;96552.59;;;7.08;100.00
706;BME280;21234;48.690;9.016;2024-02-15T03:40:58;96553.47;;;7.02;100.00
706;BME280;21234;48.690;9.016;2024-02-15T03:43:25;96552.00;;;7.06;100.00
706;BME280;21234;48.690;9.016;2024-02-15T03:45:51;96545.75;;;7.06;100.00
706;BME280;21234;48.690;9.016;2024-02-15T03:48:18;96549.50;;;7.05;100.00
706;BME280;21234;48.690;9.016;2024-02-15T03:50:45;96547.78;;;7.11;100.00
706;BME280;21234;48.690;9.016;2024-02-15T03:53:13;96555.69;;;7.12;100.00
706;BME280;21234;48.690;9.016;2024-02-15T03:55:40;96552.28;;;7.17;100.00
706;BME280;21234;48.690;9.016;2024-02-15T03:58:06;96560.19;;;7.18;100.00
706;BME280;21234;48.690;9.016;2024-02-15T04:00:34;96555.22;;;7.15;100.00
706;BME280;21234;48.690;9.016;2024-02-15T04:03:00;96556.00;;;7.22;100.00
706;BME280;21234;48.690;9.016;2024-02-15T04:05:27;96560.97;;;7.25;100.00
706;BME280;21234;48.690;9.016;2024-02-15T04:07:54;96563.06;;;7.23;100.00
706;BME280;21234;48.690;9.016;2024-02-15T04:10:22;96565.16;;;7.21;100.00
706;BME280;21234;48.690;9.016;2024-02-15T04:12:49;96555.16;;;7.22;100.00
706;BME280;21234;48.690;9.016;2024-02-15T04:15:16;96562.00;;;7.24;100.00
706;BME280;21234;48.690;9.016;2024-02-15T04:17:43;96559.31;;;7.24;100.00
706;BME280;21234;48.690;9.016;2024-02-15T04:20:11;96560.97;;;7.25;100.00
706;BME280;21234;48.690;9.016;2024-02-15T04:22:39;96562.34;;;7.34;100.00
706;BME280;21234;48.690;9.016;2024-02-15T04:25:08;96554.59;;;7.38;100.00
706;BME280;21234;48.690;9.016;2024-02-15T04:27:37;96554.00;;;7.36;100.00
706;BME280;21234;48.690;9.016;2024-02-15T04:30:04;96568.56;;;7.35;100.00
706;BME280;21234;48.690;9.016;2024-02-15T04:32:35;96562.34;;;7.34;100.00
706;BME280;21234;48.690;9.016;2024-02-15T04:35:02;96564.59;;;7.37;100.00
706;BME280;21234;48.690;9.016;2024-02-15T04:37:29;96561.28;;;7.35;100.00
706;BME280;21234;48.690;9.016;2024-02-15T04:39:57;96559.69;;;7.28;100.00
706;BME280;21234;48.690;9.016;2024-02-15T04:42:24;96553.84;;;7.31;100.00
706;BME280;21234;48.690;9.016;2024-02-15T04:44:54;96552.34;;;7.35;100.00
706;BME280;21234;48.690;9.016;2024-02-15T04:47:21;96555.00;;;7.41;100.00
706;BME280;21234;48.690;9.016;2024-02-15T04:49:48;96553.78;;;7.37;100.00
706;BME280;21234;48.690;9.016;2024-02-15T04:52:15;96546.94;;;7.35;100.00
706;BME280;21234;48.690;9.016;2024-02-15T04:54:43;96551.53;;;7.34;100.00
706;BME280;21234;48.690;9.016;2024-02-15T04:57:09;96547.38;;;7.32;100.00
706;BME280;21234;48.690;9.016;2024-02-15T04:59:37;96533.19;;;7.36;100.00
706;BME280;21234;48.690;9.016;2024-02-15T05:02:05;96533.19;;;7.36;100.00
706;BME280;21234;48.690;9.016;2024-02-15T05:04:33;96536.72;;;7.37;100.00
706;BME280;21234;48.690;9.016;2024-02-15T05:07:01;96537.56;;;7.37;100.00
706;BME280;21234;48.690;9.016;2024-02-15T05:09:29;96536.13;;;7.35;100.00
706;BME280;21234;48.690;9.016;2024-02-15T05:11:56;96536.34;;;7.33;100.00
706;BME280;21234;48.690;9.016;2024-02-15T05:14:23;96534.53;;;7.27;100.00
706;BME280;21234;48.690;9.016;2024-02-15T05:16:49;96535.78;;;7.25;100.00
706;BME280;21234;48.690;9.016;2024-02-15T05:19:18;96538.19;;;7.15;100.00
706;BME280;21234;48.690;9.016;2024-02-15T05:21:45;96538.25;;;7.08;100.00
706;BME280;21234;48.690;9.016;2024-02-15T05:24:12;96536.44;;;7.02;100.00
706;BME280;21234;48.690;9.016;2024-02-15T05:26:40;96531.69;;;6.97;100.00
706;BME280;21234;48.690;9.016;2024-02-15T05:29:08;96532.47;;;7.04;100.00
706;BME280;21234;48.690;9.016;2024-02-15T05:31:35;96524.97;;;7.06;100.00
706;BME280;21234;48.690;9.016;2024-02-15T05:34:05;96530.38;;;7.06;100.00
706;BME280;21234;48.690;9.016;2024-02-15T05:36:34;96529.81;;;6.98;100.00
706;BME280;21234;48.690;9.016;2024-02-15T05:39:01;96524.97;;;7.06;100.00
706;BME280;21234;48.690;9.016;2024-02-15T05:41:28;96528.72;;;7.05;100.00
706;BME280;21234;48.690;9.016;2024-02-15T05:43:55;96530.59;;;7.05;100.00
706;BME280;21234;48.690;9.016;2024-02-15T05:46:23;96522.25;;;7.06;100.00
706;BME280;21234;48.690;9.016;2024-02-15T05:48:50;96532.41;;;7.11;100.00
706;BME280;21234;48.690;9.016;2024-02-15T05:51:18;96538.84;;;7.10;100.00
706;BME280;21234;48.690;9.016;2024-02-15T05:53:46;96538.19;;;7.15;100.00
706;BME280;21234;48.690;9.016;2024-02-15T05:56:14;96543.22;;;7.11;100.00
706;BME280;21234;48.690;9.016;2024-02-15T05:58:42;96550.63;;;7.16;100.00
706;BME280;21234;48.690;9.016;2024-02-15T06:01:08;96547.50;;;7.19;100.00
706;BME280;21234;48.690;9.016;2024-02-15T06:03:37;96542.47;;;7.22;100.00
706;BME280;21234;48.690;9.016;2024-02-15T06:06:05;96536.22;;;7.22;100.00
706;BME280;21234;48.690;9.016;2024-02-15T06:08:33;96537.63;;;7.31;100.00
706;BME280;21234;48.690;9.016;2024-02-15T06:11:02;96533.69;;;7.27;100.00
706;BME280;21234;48.690;9.016;2024-02-15T06:13:29;96532.25;;;7.24;100.00
706;BME280;21234;48.690;9.016;2024-02-15T06:15:56;96532.03;;;7.26;100.00
706;BME280;21234;48.690;9.016;2024-02-15T06:18:24;96535.78;;;7.25;100.00
706;BME280;21234;48.690;9.016;2024-02-15T06:20:53;96528.94;;;7.22;100.00
706;BME280;21234;48.690;9.016;2024-02-15T06:23:22;96531.66;;;7.22;100.00
706;BME280;21234;48.690;9.016;2024-02-15T06:25:51;96532.09;;;7.19;100.00
706;BME280;21234;48.690;9.016;2024-02-15T06:28:20;96540.06;;;7.14;100.00
706;BME280;21234;48.690;9.016;2024-02-15T06:31:01;96535.50;;;7.15;100.00
706;BME280;21234;48.690;9.016;2024-02-15T06:33:45;96531.28;;;7.19;100.00
706;BME280;21234;48.690;9.016;2024-02-15T06:36:29;96530.31;;;7.13;100.00
706;BME280;21234;48.690;9.016;2024-02-15T06:39:13;96527.44;;;7.08;100.00
706;BME280;21234;48.690;9.016;2024-02-15T06:41:56;96522.47;;;7.05;100.00
706;BME280;21234;48.690;9.016;2024-02-15T06:44:24;96520.81;;;7.04;100.00
706;BME280;21234;48.690;9.016;2024-02-15T06:46:51;96515.78;;;7.07;100.00
706;BME280;21234;48.690;9.016;2024-02-15T06:49:18;96511.81;;;7.10;100.00
706;BME280;21234;48.690;9.016;2024-02-15T06:51:47;96524.97;;;7.06;100.00
706;BME280;21234;48.690;9.016;2024-02-15T06:54:14;96521.81;;;7.10;100.00
706;BME280;21234;48.690;9.016;2024-02-15T06:56:40;96522.56;;;7.17;100.00
706;BME280;21234;48.690;9.016;2024-02-15T06:59:09;96523.75;;;7.21;100.00
706;BME280;21234;48.690;9.016;2024-02-15T07:01:41;96525.13;;;7.30;100.00
706;BME280;21234;48.690;9.016;2024-02-15T07:04:08;96521.78;;;7.34;100.00
706;BME280;21234;48.690;9.016;2024-02-15T07:06:36;96522.97;;;7.38;100.00
706;BME280;21234;48.690;9.016;2024-02-15T07:09:03;96527.72;;;7.43;100.00
706;BME280;21234;48.690;9.016;2024-02-15T07:11:31;96523.66;;;7.52;100.00
706;BME280;21234;48.690;9.016;2024-02-15T07:13:58;96521.16;;;7.51;100.00
706;BME280;21234;48.690;9.016;2024-02-15T07:16:24;96531.97;;;7.51;100.00
706;BME280;21234;48.690;9.016;2024-02-15T07:18:52;96532.84;;;7.69;100.00
706;BME280;21234;48.690;9.016;2024-02-15T07:21:20;96527.34;;;7.76;100.00
706;BME280;21234;48.690;9.016;2024-02-15T07:23:51;96528.91;;;8.32;100.00
706;BME280;21234;48.690;9.016;2024-02-15T07:26:19;96515.56;;;8.49;100.00
706;BME280;21234;48.690;9.016;2024-02-15T07:28:49;96517.47;;;9.01;100.00
706;BME280;21234;48.690;9.016;2024-02-15T07:31:18;96515.56;;;9.60;100.00
706;BME280;21234;48.690;9.016;2024-02-15T07:33:46;96502.19;;;9.82;98.19
706;BME280;21234;48.690;9.016;2024-02-15T07:36:19;96498.06;;;10.08;95.12
706;BME280;21234;48.690;9.016;2024-02-15T07:38:46;96495.94;;;10.10;94.68
706;BME280;21234;48.690;9.016;2024-02-15T07:41:14;96493.19;;;10.33;93.86
706;BME280;21234;48.690;9.016;2024-02-15T07:43:41;96488.25;;;10.19;92.23
706;BME280;21234;48.690;9.016;2024-02-15T07:46:11;96476.69;;;10.11;93.16
706;BME280;21234;48.690;9.016;2024-02-15T07:48:39;96483.34;;;10.04;93.67
706;BME280;21234;48.690;9.016;2024-02-15T07:51:11;96472.72;;;9.74;94.76
706;BME280;21234;48.690;9.016;2024-02-15T07:53:39;96481.47;;;9.53;96.37
706;BME280;21234;48.690;9.016;2024-02-15T07:56:06;96478.19;;;9.27;98.61
706;BME280;21234;48.690;9.016;2024-02-15T07:58:33;96472.88;;;8.97;99.85
706;BME280;21234;48.690;9.016;2024-02-15T08:01:00;96472.97;;;8.79;100.00
706;BME280;21234;48.690;9.016;2024-02-15T08:03:26;96478.16;;;8.81;100.00
706;BME280;21234;48.690;9.016;2024-02-15T08:05:55;96468.63;;;8.78;100.00
706;BME280;21234;48.690;9.016;2024-02-15T08:08:21;96472.88;;;8.86;100.00
706;BME280;21234;48.690;9.016;2024-02-15T08:10:50;96469.94;;;8.99;100.00
706;BME280;21234;48.690;9.016;2024-02-15T08:13:18;96470.66;;;9.06;100.00
706;BME280;21234;48.690;9.016;2024-02-15T08:15:48;96472.19;;;9.25;100.00
706;BME280;21234;48.690;9.016;2024-02-15T08:18:17;96461.31;;;9.37;100.00
706;BME280;21234;48.690;9.016;2024-02-15T08:20:45;96465.22;;;9.41;98.69
706;BME280;21234;48.690;9.016;2024-02-15T08:23:12;96458.97;;;9.40;98.35
706;BME280;21234;48.690;9.016;2024-02-15T08:25:39;96454.22;;;9.48;97.77
706;BME280;21234;48.690;9.016;2024-02-15T08:28:08;96456.09;;;9.47;97.34
706;BME280;21234;48.690;9.016;2024-02-15T08:30:36;96454.38;;;9.41;97.93
706;BME280;21234;48.690;9.016;2024-02-15T08:33:04;96444.34;;;9.41;98.04
706;BME280;21234;48.690;9.016;2024-02-15T08:35:30;96433.97;;;9.38;98.98
706;BME280;21234;48.690;9.016;2024-02-15T08:37:58;96441.13;;;9.44;99.20
706;BME280;21234;48.690;9.016;2024-02-15T08:40:24;96441.84;;;9.40;98.60
706;BME280;21234;48.690;9.016;2024-02-15T08:42:51;96430.19;;;9.39;97.99
706;BME280;21234;48.690;9.016;2024-02-15T08:45:19;96430.66;;;9.36;97.69
706;BME280;21234;48.690;9.016;2024-02-15T08:47:46;96431.97;;;9.34;98.00
706;BME280;21234;48.690;9.016;2024-02-15T08:50:15;96436.91;;;9.25;98.09
706;BME280;21234;48.690;9.016;2024-02-15T08:52:43;96432.31;;;9.26;98.69
706;BME280;21234;48.690;9.016;2024-02-15T08:55:11;96430.06;;;9.23;98.78
706;BME280;21234;48.690;9.016;2024-02-15T08:57:40;96428.88;;;9.30;98.70
706;BME280;21234;48.690;9.016;2024-02-15T09:00:10;96423.00;;;9.33;98.69
706;BME280;21234;48.690;9.016;2024-02-15T09:02:42;96429.59;;;9.37;98.45
706;BME280;21234;48.690;9.016;2024-02-15T09:05:09;96424.72;;;9.51;98.64
706;BME280;21234;48.690;9.016;2024-02-15T09:07:39;96420.69;;;9.54;98.28
706;BME280;21234;48.690;9.016;2024-02-15T09:10:08;96417.13;;;9.65;98.48
706;BME280;21234;48.690;9.016;2024-02-15T09:12:35;96410.50;;;9.72;97.59
706;BME280;21234;48.690;9.016;2024-02-15T09:15:05;96413.25;;;9.89;96.96
706;BME280;21234;48.690;9.016;2024-02-15T09:17:33;96413.72;;;9.98;96.15
706;BME280;21234;48.690;9.016;2024-02-15T09:20:07;96412.63;;;9.99;95.03
706;BME280;21234;48.690;9.016;2024-02-15T09:22:34;96407.13;;;10.10;95.12
706;BME280;21234;48.690;9.016;2024-02-15T09:25:01;96399.06;;;10.27;94.23
706;BME280;21234;48.690;9.016;2024-02-15T09:27:28;96404.84;;;10.31;92.20
706;BME280;21234;48.690;9.016;2024-02-15T09:29:55;96405.50;;;10.38;92.88
706;BME280;21234;48.690;9.016;2024-02-15T09:32:22;96405.50;;;10.38;91.43
706;BME280;21234;48.690;9.016;2024-02-15T09:34:49;96400.31;;;10.53;92.05
706;BME280;21234;48.690;9.016;2024-02-15T09:37:17;96404.03;;;10.64;89.66
706;BME280;21234;48.690;9.016;2024-02-15T09:39:44;96393.88;;;10.76;91.19
706;BME280;21234;48.690;9.016;2024-02-15T09:42:11;96393.53;;;10.89;88.21
706;BME280;21234;48.690;9.016;2024-02-15T09:44:38;96390.03;;;11.10;87.89
706;BME280;21234;48.690;9.016;2024-02-15T09:47:06;96396.13;;;11.18;86.47
706;BME280;21234;48.690;9.016;2024-02-15T09:49:35;96394.25;;;11.40;85.62
706;BME280;21234;48.690;9.016;2024-02-15T09:52:06;96396.78;;;11.47;83.08
706;BME280;21234;48.690;9.016;2024-02-15T09:54:39;96389.91;;;11.61;83.34
706;BME280;21234;48.690;9.016;2024-02-15T09:57:09;96388.25;;;11.82;83.63
706;BME280;21234;48.690;9.016;2024-02-15T09:59:36;96383.25;;;11.95;82.75
706;BME280;21234;48.690;9.016;2024-02-15T10:02:03;96389.59;;;12.01;80.41
706;BME280;21234;48.690;9.016;2024-02-15T10:04:32;96381.69;;;12.04;80.43
706;BME280;21234;48.690;9.016;2024-02-15T10:07:00;96380.66;;;12.10;80.48
706;BME280;21234;48.690;9.016;2024-02-15T10:09:27;96380.34;;;12.07;78.50
706;BME280;21234;48.690;9.016;2024-02-15T10:11:56;96375.91;;;11.96;77.16
706;BME280;21234;48.690;9.016;2024-02-15T10:14:24;96374.97;;;12.12;76.94
706;BME280;21234;48.690;9.016;2024-02-15T10:16:51;96368.34;;;12.30;77.79
706;BME280;21234;48.690;9.016;2024-02-15T10:19:19;96369.59;;;12.49;76.03
706;BME280;21234;48.690;9.016;2024-02-15T10:21:51;96370.56;;;12.65;74.95
706;BME280;21234;48.690;9.016;2024-02-15T10:24:20;96371.19;;;12.45;73.53
706;BME280;21234;48.690;9.016;2024-02-15T10:26:48;96374.00;;;12.55;74.99
706;BME280;21234;48.690;9.016;2024-02-15T10:29:16;96367.84;;;12.38;73.81
706;BME280;21234;48.690;9.016;2024-02-15T10:31:53;96363.78;;;12.40;74.10
706;BME280;21234;48.690;9.016;2024-02-15T10:34:20;96354.00;;;12.44;75.03
706;BME280;21234;48.690;9.016;2024-02-15T10:36:47;96360.47;;;12.70;75.10
706;BME280;21234;48.690;9.016;2024-02-15T10:39:15;96349.69;;;12.86;73.91
706;BME280;21234;48.690;9.016;2024-02-15T10:41:48;96352.25;;;13.02;73.67
706;BME280;21234;48.690;9.016;2024-02-15T10:44:20;96369.72;;;13.06;73.52
706;BME280;21234;48.690;9.016;2024-02-15T10:46:48;96356.53;;;12.88;74.41
706;BME280;21234;48.690;9.016;2024-02-15T10:49:18;96361.09;;;12.77;74.00
706;BME280;21234;48.690;9.016;2024-02-15T10:51:48;96359.66;;;12.70;75.08
706;BME280;21234;48.690;9.016;2024-02-15T10:54:25;96361.59;;;12.74;74.77
706;BME280;21234;48.690;9.016;2024-02-15T10:57:03;96354.06;;;12.87;76.56
706;BME280;21234;48.690;9.016;2024-02-15T10:59:34;96346.47;;;12.94;75.41
706;BME280;21234;48.690;9.016;2024-02-15T11:02:16;96351.97;;;13.04;72.79
706;BME280;21234;48.690;9.016;2024-02-15T11:04:52;96337.13;;;13.22;69.45
706;BME280;21234;48.690;9.016;2024-02-15T11:07:23;96331.41;;;13.28;69.74
706;BME280;21234;48.690;9.016;2024-02-15T11:09:50;96331.41;;;13.33;69.65
706;BME280;21234;48.690;9.016;2024-02-15T11:12:18;96324.06;;;13.39;70.26
706;BME280;21234;48.690;9.016;2024-02-15T11:14:46;96327.91;;;13.43;68.98
706;BME280;21234;48.690;9.016;2024-02-15T11:17:47;96320.28;;;13.45;69.01
706;BME280;21234;48.690;9.016;2024-02-15T11:20:50;96318.69;;;13.54;68.18
706;BME280;21234;48.690;9.016;2024-02-15T11:23:27;96310.78;;;13.68;67.96
706;BME280;21234;48.690;9.016;2024-02-15T11:25:54;96307.81;;;13.64;68.57
706;BME280;21234;48.690;9.016;2024-02-15T11:28:39;96305.34;;;13.68;66.81
706;BME280;21234;48.690;9.016;2024-02-15T11:31:10;96303.38;;;13.53;67.81
706;BME280;21234;48.690;9.016;2024-02-15T11:33:39;96297.41;;;13.61;67.40
706;BME280;21234;48.690;9.016;2024-02-15T11:36:07;96306.97;;;13.59;68.44
706;BME280;21234;48.690;9.016;2024-02-15T11:38:35;96301.22;;;13.60;68.12
706;BME280;21234;48.690;9.016;2024-02-15T11:41:04;96296.88;;;13.74;68.98
706;BME280;21234;48.690;9.016;2024-02-15T11:43:50;96294.69;;;13.61;65.15
706;BME280;21234;48.690;9.016;2024-02-15T11:46:22;96292.22;;;13.70;66.66
706;BME280;21234;48.690;9.016;2024-02-15T11:48:52;96279.16;;;13.82;66.82
706;BME280;21234;48.690;9.016;2024-02-15T11:51:30;96279.19;;;13.92;64.47
706;BME280;21234;48.690;9.016;2024-02-15T11:54:03;96288.47;;;13.91;62.66
706;BME280;21234;48.690;9.016;2024-02-15T11:56:33;96289.81;;;13.89;62.40
706;BME280;21234;48.690;9.016;2024-02-15T11:59:17;96283.00;;;13.91;63.56
706;BME280;21234;48.690;9.016;2024-02-15T12:01:55;96283.81;;;13.87;62.52
706;BME280;21234;48.690;9.016;2024-02-15T12:04:41;96275.34;;;13.93;62.26
706;BME280;21234;48.690;9.016;2024-02-15T12:07:25;96274.78;;;14.01;61.62
706;BME280;21234;48.690;9.016;2024-02-15T12:10:15;96273.44;;;14.09;60.50
706;BME280;21234;48.690;9.016;2024-02-15T12:12:59;96260.56;;;13.99;58.85
706;BME280;21234;48.690;9.016;2024-02-15T12:15:58;96264.41;;;13.98;59.06
706;BME280;21234;48.690;9.016;2024-02-15T12:18:43;96254.84;;;14.06;59.97
706;BME280;21234;48.690;9.016;2024-02-15T12:21:22;96257.84;;;14.04;58.70
706;BME280;21234;48.690;9.016;2024-02-15T12:23:51;96244.75;;;14.22;58.22
706;BME280;21234;48.690;9.016;2024-02-15T12:26:19;96240.09;;;14.27;57.66
706;BME280;21234;48.690;9.016;2024-02-15T12:28:50;96232.16;;;14.31;57.36
706;BME280;21234;48.690;9.016;2024-02-15T12:31:17;96232.16;;;14.31;56.87
706;BME280;21234;48.690;9.016;2024-02-15T12:33:44;96234.63;;;14.27;55.94
706;BME280;21234;48.690;9.016;2024-02-15T12:36:13;96231.34;;;14.40;56.56
706;BME280;21234;48.690;9.016;2024-02-15T12:38:42;96220.69;;;14.44;56.46
706;BME280;21234;48.690;9.016;2024-02-15T12:41:20;96220.09;;;14.62;58.45
706;BME280;21234;48.690;9.016;2024-02-15T12:43:46;96224.19;;;14.70;56.47
706;BME280;21234;48.690;9.016;2024-02-15T12:46:18;96218.44;;;14.76;56.10
706;BME280;21234;48.690;9.016;2024-02-15T12:48:45;96222.00;;;14.77;55.76
706;BME280;21234;48.690;9.016;2024-02-15T12:51:16;96216.78;;;14.81;55.81
706;BME280;21234;48.690;9.016;2024-02-15T12:53:44;96212.69;;;14.78;55.30
706;BME280;21234;48.690;9.016;2024-02-15T12:56:19;96207.50;;;14.76;56.03
706;BME280;21234;48.690;9.016;2024-02-15T12:58:46;96202.28;;;14.75;55.83
706;BME280;21234;48.690;9.016;2024-02-15T13:01:13;96205.03;;;14.75;57.38
706;BME280;21234;48.690;9.016;2024-02-15T13:03:41;96197.66;;;14.75;56.05
706;BME280;21234;48.690;9.016;2024-02-15T13:06:08;96194.09;;;14.75;56.28
706;BME280;21234;48.690;9.016;2024-02-15T13:08:36;96190.22;;;14.86;56.39
706;BME280;21234;48.690;9.016;2024-02-15T13:11:03;96185.59;;;14.82;56.66
706;BME280;21234;48.690;9.016;2024-02-15T13:13:30;96186.97;;;14.74;56.64
706;BME280;21234;48.690;9.016;2024-02-15T13:15:56;96182.88;;;14.71;56.01
706;BME280;21234;48.690;9.016;2024-02-15T13:18:23;96177.13;;;14.78;57.00
706;BME280;21234;48.690;9.016;2024-02-15T13:20:51;96174.34;;;14.88;60.19
706;BME280;21234;48.690;9.016;2024-02-15T13:23:18;96165.03;;;14.89;57.79
706;BME280;21234;48.690;9.016;2024-02-15T13:25:49;96168.06;;;14.88;56.67
706;BME280;21234;48.690;9.016;2024-02-15T13:28:17;96163.38;;;14.93;56.83
706;BME280;21234;48.690;9.016;2024-02-15T13:30:44;96163.63;;;14.97;56.62
706;BME280;21234;48.690;9.016;2024-02-15T13:33:11;96167.72;;;14.99;55.81